sensor_id;sensor_type;location;lat;lon;timestamp;P1;durP1;ratioP1;P2;durP2;ratioP2
81834;SDS011;71272;52.166;4.498;2023-07-31T00:00:34;31.58;;;7.28;;
81834;SDS011;71272;52.166;4.498;2023-07-31T00:03:58;25.33;;;6.90;;
81834;SDS011;71272;52.166;4.498;2023-07-31T00:07:22;23.40;;;5.50;;
81834;SDS011;71272;52.166;4.498;2023-07-31T00:10:47;25.17;;;5.95;;
81834;SDS011;71272;52.166;4.498;2023-07-31T00:14:11;22.33;;;5.95;;
81834;SDS011;71272;52.166;4.498;2023-07-31T00:17:35;16.45;;;4.80;;
81834;SDS011;71272;52.166;4.498;2023-07-31T00:20:59;14.88;;;4.68;;
81834;SDS011;71272;52.166;4.498;2023-07-31T00:24:23;21.42;;;5.13;;
81834;SDS011;71272;52.166;4.498;2023-07-31T00:27:47;16.27;;;4.57;;
81834;SDS011;71272;52.166;4.498;2023-07-31T00:31:11;17.55;;;4.78;;
81834;SDS011;71272;52.166;4.498;2023-07-31T00:34:35;15.27;;;4.55;;
81834;SDS011;71272;52.166;4.498;2023-07-31T00:37:59;20.25;;;5.43;;
81834;SDS011;71272;52.166;4.498;2023-07-31T00:41:22;41.90;;;7.32;;
81834;SDS011;71272;52.166;4.498;2023-07-31T00:44:46;28.85;;;7.80;;
81834;SDS011;71272;52.166;4.498;2023-07-31T00:48:10;35.13;;;6.78;;
81834;SDS011;71272;52.166;4.498;2023-07-31T00:51:35;27.17;;;6.88;;
81834;SDS011;71272;52.166;4.498;2023-07-31T00:55:00;30.05;;;8.40;;
81834;SDS011;71272;52.166;4.498;2023-07-31T00:58:24;28.75;;;5.90;;
81834;SDS011;71272;52.166;4.498;2023-07-31T01:01:48;24.35;;;5.68;;
81834;SDS011;71272;52.166;4.498;2023-07-31T01:05:13;24.75;;;7.05;;
81834;SDS011;71272;52.166;4.498;2023-07-31T01:08:47;18.95;;;6.07;;
81834;SDS011;71272;52.166;4.498;2023-07-31T01:12:16;29.13;;;6.32;;
81834;SDS011;71272;52.166;4.498;2023-07-31T01:15:44;26.95;;;6.55;;
81834;SDS011;71272;52.166;4.498;2023-07-31T01:19:08;26.00;;;6.72;;
81834;SDS011;71272;52.166;4.498;2023-07-31T01:23:26;20.90;;;6.85;;
81834;SDS011;71272;52.166;4.498;2023-07-31T01:26:55;34.47;;;7.32;;
81834;SDS011;71272;52.166;4.498;2023-07-31T01:30:29;33.13;;;8.02;;
81834;SDS011;71272;52.166;4.498;2023-07-31T01:37:19;34.38;;;8.30;;
81834;SDS011;71272;52.166;4.498;2023-07-31T01:40:50;24.90;;;6.78;;
81834;SDS011;71272;52.166;4.498;2023-07-31T01:44:14;27.98;;;7.88;;
81834;SDS011;71272;52.166;4.498;2023-07-31T01:47:38;34.35;;;8.32;;
81834;SDS011;71272;52.166;4.498;2023-07-31T01:51:02;24.73;;;7.35;;
81834;SDS011;71272;52.166;4.498;2023-07-31T01:54:26;23.63;;;6.90;;
81834;SDS011;71272;52.166;4.498;2023-07-31T01:57:50;25.45;;;6.80;;
81834;SDS011;71272;52.166;4.498;2023-07-31T02:01:14;18.77;;;6.25;;
81834;SDS011;71272;52.166;4.498;2023-07-31T02:04:38;24.52;;;6.03;;
81834;SDS011;71272;52.166;4.498;2023-07-31T02:08:01;30.15;;;6.95;;
81834;SDS011;71272;52.166;4.498;2023-07-31T02:11:25;30.38;;;7.45;;
81834;SDS011;71272;52.166;4.498;2023-07-31T02:14:49;27.90;;;6.85;;
81834;SDS011;71272;52.166;4.498;2023-07-31T02:18:13;20.48;;;5.47;;
81834;SDS011;71272;52.166;4.498;2023-07-31T02:21:37;22.00;;;6.10;;
81834;SDS011;71272;52.166;4.498;2023-07-31T02:25:01;27.35;;;6.13;;
81834;SDS011;71272;52.166;4.498;2023-07-31T02:28:25;26.00;;;6.53;;
81834;SDS011;71272;52.166;4.498;2023-07-31T02:31:49;31.48;;;7.28;;
81834;SDS011;71272;52.166;4.498;2023-07-31T02:35:12;28.50;;;7.32;;
81834;SDS011;71272;52.166;4.498;2023-07-31T02:38:36;27.38;;;6.82;;
81834;SDS011;71272;52.166;4.498;2023-07-31T02:42:00;30.80;;;6.85;;
81834;SDS011;71272;52.166;4.498;2023-07-31T02:45:24;25.55;;;6.22;;
81834;SDS011;71272;52.166;4.498;2023-07-31T02:48:49;23.27;;;6.55;;
81834;SDS011;71272;52.166;4.498;2023-07-31T02:52:13;26.13;;;7.18;;
81834;SDS011;71272;52.166;4.498;2023-07-31T02:55:37;21.63;;;6.55;;
81834;SDS011;71272;52.166;4.498;2023-07-31T02:59:01;21.15;;;6.20;;
81834;SDS011;71272;52.166;4.498;2023-07-31T03:02:25;26.10;;;6.50;;
81834;SDS011;71272;52.166;4.498;2023-07-31T03:05:49;18.75;;;6.00;;
81834;SDS011;71272;52.166;4.498;2023-07-31T03:09:12;32.17;;;6.57;;
81834;SDS011;71272;52.166;4.498;2023-07-31T03:12:37;28.63;;;5.60;;
81834;SDS011;71272;52.166;4.498;2023-07-31T03:16:00;33.45;;;7.63;;
81834;SDS011;71272;52.166;4.498;2023-07-31T03:19:24;36.83;;;6.80;;
81834;SDS011;71272;52.166;4.498;2023-07-31T03:22:48;30.38;;;6.40;;
81834;SDS011;71272;52.166;4.498;2023-07-31T03:26:12;32.67;;;7.68;;
81834;SDS011;71272;52.166;4.498;2023-07-31T03:29:36;21.52;;;6.78;;
81834;SDS011;71272;52.166;4.498;2023-07-31T03:33:01;25.83;;;6.53;;
81834;SDS011;71272;52.166;4.498;2023-07-31T03:36:25;34.20;;;7.55;;
81834;SDS011;71272;52.166;4.498;2023-07-31T03:39:49;29.27;;;7.80;;
81834;SDS011;71272;52.166;4.498;2023-07-31T03:43:13;34.45;;;7.57;;
81834;SDS011;71272;52.166;4.498;2023-07-31T03:46:37;28.63;;;8.90;;
81834;SDS011;71272;52.166;4.498;2023-07-31T03:50:01;23.45;;;6.70;;
81834;SDS011;71272;52.166;4.498;2023-07-31T03:53:25;46.85;;;7.45;;
81834;SDS011;71272;52.166;4.498;2023-07-31T03:56:49;22.65;;;6.82;;
81834;SDS011;71272;52.166;4.498;2023-07-31T04:00:13;15.90;;;4.47;;
81834;SDS011;71272;52.166;4.498;2023-07-31T04:03:36;15.55;;;4.57;;
81834;SDS011;71272;52.166;4.498;2023-07-31T04:07:00;11.75;;;3.95;;
81834;SDS011;71272;52.166;4.498;2023-07-31T04:10:24;12.00;;;3.75;;
81834;SDS011;71272;52.166;4.498;2023-07-31T04:13:48;15.32;;;4.05;;
81834;SDS011;71272;52.166;4.498;2023-07-31T04:17:12;12.75;;;3.97;;
81834;SDS011;71272;52.166;4.498;2023-07-31T04:20:36;15.05;;;4.10;;
81834;SDS011;71272;52.166;4.498;2023-07-31T04:24:00;15.82;;;4.05;;
81834;SDS011;71272;52.166;4.498;2023-07-31T04:27:23;12.88;;;4.03;;
81834;SDS011;71272;52.166;4.498;2023-07-31T04:30:47;9.15;;;2.97;;
81834;SDS011;71272;52.166;4.498;2023-07-31T04:34:12;9.57;;;2.65;;
81834;SDS011;71272;52.166;4.498;2023-07-31T04:37:36;8.70;;;2.50;;
81834;SDS011;71272;52.166;4.498;2023-07-31T04:41:00;6.93;;;1.80;;
81834;SDS011;71272;52.166;4.498;2023-07-31T04:44:23;7.20;;;1.95;;
81834;SDS011;71272;52.166;4.498;2023-07-31T04:47:47;7.38;;;2.08;;
81834;SDS011;71272;52.166;4.498;2023-07-31T04:51:11;6.93;;;2.67;;
81834;SDS011;71272;52.166;4.498;2023-07-31T04:54:35;6.55;;;1.48;;
81834;SDS011;71272;52.166;4.498;2023-07-31T04:57:59;5.65;;;1.58;;
81834;SDS011;71272;52.166;4.498;2023-07-31T05:01:23;7.15;;;1.73;;
81834;SDS011;71272;52.166;4.498;2023-07-31T05:04:47;5.93;;;1.83;;
81834;SDS011;71272;52.166;4.498;2023-07-31T05:08:11;4.53;;;1.75;;
81834;SDS011;71272;52.166;4.498;2023-07-31T05:11:35;3.80;;;1.45;;
81834;SDS011;71272;52.166;4.498;2023-07-31T05:14:59;5.18;;;1.38;;
81834;SDS011;71272;52.166;4.498;2023-07-31T05:18:22;5.18;;;1.50;;
81834;SDS011;71272;52.166;4.498;2023-07-31T05:21:46;6.63;;;1.83;;
81834;SDS011;71272;52.166;4.498;2023-07-31T05:25:10;2.95;;;1.23;;
81834;SDS011;71272;52.166;4.498;2023-07-31T05:28:35;3.63;;;1.35;;
81834;SDS011;71272;52.166;4.498;2023-07-31T05:31:58;2.95;;;1.33;;
81834;SDS011;71272;52.166;4.498;2023-07-31T05:35:22;4.95;;;1.55;;
81834;SDS011;71272;52.166;4.498;2023-07-31T05:38:46;2.85;;;1.58;;
81834;SDS011;71272;52.166;4.498;2023-07-31T05:42:10;3.50;;;1.50;;
81834;SDS011;71272;52.166;4.498;2023-07-31T05:45:34;2.97;;;1.50;;
81834;SDS011;71272;52.166;4.498;2023-07-31T05:48:58;5.50;;;1.90;;
81834;SDS011;71272;52.166;4.498;2023-07-31T05:52:22;4.07;;;1.80;;
81834;SDS011;71272;52.166;4.498;2023-07-31T05:55:46;4.03;;;1.60;;
81834;SDS011;71272;52.166;4.498;2023-07-31T05:59:11;4.22;;;2.25;;
81834;SDS011;71272;52.166;4.498;2023-07-31T06:02:36;3.92;;;1.90;;
81834;SDS011;71272;52.166;4.498;2023-07-31T06:06:00;4.75;;;1.83;;
81834;SDS011;71272;52.166;4.498;2023-07-31T06:09:23;4.30;;;1.70;;
81834;SDS011;71272;52.166;4.498;2023-07-31T06:12:47;8.20;;;1.95;;
81834;SDS011;71272;52.166;4.498;2023-07-31T06:16:13;5.88;;;2.25;;
81834;SDS011;71272;52.166;4.498;2023-07-31T06:19:37;6.00;;;1.92;;
81834;SDS011;71272;52.166;4.498;2023-07-31T06:23:01;7.20;;;2.03;;
81834;SDS011;71272;52.166;4.498;2023-07-31T06:26:24;10.00;;;2.30;;
81834;SDS011;71272;52.166;4.498;2023-07-31T06:29:48;8.05;;;2.83;;
81834;SDS011;71272;52.166;4.498;2023-07-31T06:33:12;8.32;;;2.15;;
81834;SDS011;71272;52.166;4.498;2023-07-31T06:36:36;8.70;;;2.30;;
81834;SDS011;71272;52.166;4.498;2023-07-31T06:40:00;9.05;;;2.10;;
81834;SDS011;71272;52.166;4.498;2023-07-31T06:43:24;9.50;;;2.70;;
81834;SDS011;71272;52.166;4.498;2023-07-31T06:46:48;9.68;;;2.25;;
81834;SDS011;71272;52.166;4.498;2023-07-31T06:50:12;11.77;;;2.70;;
81834;SDS011;71272;52.166;4.498;2023-07-31T06:53:35;9.80;;;2.67;;
81834;SDS011;71272;52.166;4.498;2023-07-31T06:56:59;10.05;;;2.97;;
81834;SDS011;71272;52.166;4.498;2023-07-31T07:00:23;17.77;;;4.03;;
81834;SDS011;71272;52.166;4.498;2023-07-31T07:03:47;10.73;;;3.42;;
81834;SDS011;71272;52.166;4.498;2023-07-31T07:07:11;13.75;;;3.63;;
81834;SDS011;71272;52.166;4.498;2023-07-31T07:10:35;17.50;;;3.63;;
81834;SDS011;71272;52.166;4.498;2023-07-31T07:13:59;8.40;;;3.50;;
81834;SDS011;71272;52.166;4.498;2023-07-31T07:17:23;10.50;;;4.00;;
81834;SDS011;71272;52.166;4.498;2023-07-31T07:20:49;13.13;;;5.05;;
81834;SDS011;71272;52.166;4.498;2023-07-31T07:24:13;11.77;;;3.58;;
81834;SDS011;71272;52.166;4.498;2023-07-31T07:27:37;20.77;;;5.88;;
81834;SDS011;71272;52.166;4.498;2023-07-31T07:31:02;10.00;;;2.72;;
81834;SDS011;71272;52.166;4.498;2023-07-31T07:34:26;11.23;;;3.35;;
81834;SDS011;71272;52.166;4.498;2023-07-31T07:37:50;10.00;;;3.40;;
81834;SDS011;71272;52.166;4.498;2023-07-31T07:41:14;19.27;;;4.72;;
81834;SDS011;71272;52.166;4.498;2023-07-31T07:44:38;14.95;;;3.13;;
81834;SDS011;71272;52.166;4.498;2023-07-31T07:48:02;14.70;;;3.65;;
81834;SDS011;71272;52.166;4.498;2023-07-31T07:51:26;18.13;;;3.28;;
81834;SDS011;71272;52.166;4.498;2023-07-31T07:54:50;13.40;;;3.05;;
81834;SDS011;71272;52.166;4.498;2023-07-31T07:58:14;14.30;;;3.00;;
81834;SDS011;71272;52.166;4.498;2023-07-31T08:01:37;15.23;;;3.55;;
81834;SDS011;71272;52.166;4.498;2023-07-31T08:05:03;12.45;;;2.67;;
81834;SDS011;71272;52.166;4.498;2023-07-31T08:08:27;18.08;;;3.33;;
81834;SDS011;71272;52.166;4.498;2023-07-31T08:11:51;10.80;;;3.40;;
81834;SDS011;71272;52.166;4.498;2023-07-31T08:15:15;11.93;;;2.72;;
81834;SDS011;71272;52.166;4.498;2023-07-31T08:18:39;11.73;;;3.33;;
81834;SDS011;71272;52.166;4.498;2023-07-31T08:22:03;14.43;;;3.33;;
81834;SDS011;71272;52.166;4.498;2023-07-31T08:25:27;24.58;;;3.95;;
81834;SDS011;71272;52.166;4.498;2023-07-31T08:28:51;19.58;;;3.80;;
81834;SDS011;71272;52.166;4.498;2023-07-31T08:32:16;20.65;;;4.00;;
81834;SDS011;71272;52.166;4.498;2023-07-31T08:35:40;19.67;;;3.90;;
81834;SDS011;71272;52.166;4.498;2023-07-31T08:39:04;17.80;;;3.38;;
81834;SDS011;71272;52.166;4.498;2023-07-31T08:42:28;13.65;;;3.75;;
81834;SDS011;71272;52.166;4.498;2023-07-31T08:45:53;11.90;;;3.40;;
81834;SDS011;71272;52.166;4.498;2023-07-31T08:49:17;19.95;;;3.92;;
81834;SDS011;71272;52.166;4.498;2023-07-31T08:52:45;15.15;;;3.15;;
81834;SDS011;71272;52.166;4.498;2023-07-31T08:56:10;21.05;;;3.90;;
81834;SDS011;71272;52.166;4.498;2023-07-31T08:59:36;16.63;;;3.45;;
81834;SDS011;71272;52.166;4.498;2023-07-31T09:03:07;17.02;;;3.60;;
81834;SDS011;71272;52.166;4.498;2023-07-31T09:06:34;20.00;;;3.17;;
81834;SDS011;71272;52.166;4.498;2023-07-31T09:10:02;21.42;;;3.42;;
81834;SDS011;71272;52.166;4.498;2023-07-31T09:13:29;13.55;;;3.10;;
81834;SDS011;71272;52.166;4.498;2023-07-31T09:16:53;14.95;;;3.28;;
81834;SDS011;71272;52.166;4.498;2023-07-31T09:20:25;16.42;;;3.38;;
81834;SDS011;71272;52.166;4.498;2023-07-31T09:23:50;17.48;;;3.38;;
81834;SDS011;71272;52.166;4.498;2023-07-31T09:27:14;15.48;;;3.10;;
81834;SDS011;71272;52.166;4.498;2023-07-31T09:30:51;16.60;;;3.08;;
81834;SDS011;71272;52.166;4.498;2023-07-31T09:34:15;8.52;;;2.40;;
81834;SDS011;71272;52.166;4.498;2023-07-31T09:37:53;11.18;;;2.88;;
81834;SDS011;71272;52.166;4.498;2023-07-31T09:41:17;27.48;;;10.30;;
81834;SDS011;71272;52.166;4.498;2023-07-31T09:44:49;19.27;;;3.28;;
81834;SDS011;71272;52.166;4.498;2023-07-31T09:48:17;13.13;;;3.20;;
81834;SDS011;71272;52.166;4.498;2023-07-31T09:51:41;15.25;;;3.28;;
81834;SDS011;71272;52.166;4.498;2023-07-31T09:55:06;15.50;;;3.20;;
81834;SDS011;71272;52.166;4.498;2023-07-31T09:58:30;15.95;;;3.33;;
81834;SDS011;71272;52.166;4.498;2023-07-31T10:01:56;16.15;;;3.30;;
81834;SDS011;71272;52.166;4.498;2023-07-31T14:56:41;4.53;;;1.17;;
81834;SDS011;71272;52.166;4.498;2023-07-31T15:00:08;3.05;;;1.00;;
81834;SDS011;71272;52.166;4.498;2023-07-31T15:06:55;4.63;;;1.10;;
81834;SDS011;71272;52.166;4.498;2023-07-31T15:10:19;5.65;;;1.20;;
81834;SDS011;71272;52.166;4.498;2023-07-31T15:13:44;2.53;;;0.70;;
81834;SDS011;71272;52.166;4.498;2023-07-31T15:17:08;3.08;;;0.90;;
81834;SDS011;71272;52.166;4.498;2023-07-31T15:20:33;5.43;;;1.05;;
81834;SDS011;71272;52.166;4.498;2023-07-31T15:23:57;3.47;;;1.13;;
81834;SDS011;71272;52.166;4.498;2023-07-31T15:27:21;4.28;;;0.90;;
81834;SDS011;71272;52.166;4.498;2023-07-31T15:30:45;4.95;;;1.00;;
81834;SDS011;71272;52.166;4.498;2023-07-31T15:34:09;2.85;;;0.82;;
81834;SDS011;71272;52.166;4.498;2023-07-31T15:37:33;4.50;;;1.30;;
81834;SDS011;71272;52.166;4.498;2023-07-31T15:40:57;6.30;;;1.40;;
81834;SDS011;71272;52.166;4.498;2023-07-31T15:44:21;4.25;;;1.48;;
81834;SDS011;71272;52.166;4.498;2023-07-31T15:47:45;3.50;;;1.33;;
81834;SDS011;71272;52.166;4.498;2023-07-31T15:51:09;5.43;;;1.00;;
81834;SDS011;71272;52.166;4.498;2023-07-31T15:54:36;4.95;;;1.40;;
81834;SDS011;71272;52.166;4.498;2023-07-31T15:58:00;3.92;;;1.38;;
81834;SDS011;71272;52.166;4.498;2023-07-31T16:01:25;4.93;;;1.48;;
81834;SDS011;71272;52.166;4.498;2023-07-31T16:04:49;5.43;;;1.30;;
81834;SDS011;71272;52.166;4.498;2023-07-31T16:08:16;8.15;;;1.35;;
81834;SDS011;71272;52.166;4.498;2023-07-31T16:11:40;9.30;;;1.60;;
81834;SDS011;71272;52.166;4.498;2023-07-31T16:15:04;6.38;;;1.77;;
81834;SDS011;71272;52.166;4.498;2023-07-31T16:18:28;10.68;;;1.98;;
81834;SDS011;71272;52.166;4.498;2023-07-31T16:21:52;9.63;;;2.15;;
81834;SDS011;71272;52.166;4.498;2023-07-31T16:25:17;7.43;;;1.80;;
81834;SDS011;71272;52.166;4.498;2023-07-31T16:28:41;5.32;;;1.70;;
81834;SDS011;71272;52.166;4.498;2023-07-31T16:32:05;7.78;;;2.33;;
81834;SDS011;71272;52.166;4.498;2023-07-31T16:35:29;12.73;;;2.50;;
81834;SDS011;71272;52.166;4.498;2023-07-31T16:38:53;7.18;;;2.55;;
81834;SDS011;71272;52.166;4.498;2023-07-31T16:42:17;15.43;;;2.53;;
81834;SDS011;71272;52.166;4.498;2023-07-31T16:45:41;11.55;;;2.65;;
81834;SDS011;71272;52.166;4.498;2023-07-31T16:49:05;12.02;;;2.13;;
81834;SDS011;71272;52.166;4.498;2023-07-31T16:52:30;12.48;;;3.22;;
81834;SDS011;71272;52.166;4.498;2023-07-31T16:55:53;8.80;;;2.03;;
81834;SDS011;71272;52.166;4.498;2023-07-31T16:59:18;8.63;;;2.42;;
81834;SDS011;71272;52.166;4.498;2023-07-31T17:02:42;9.63;;;2.33;;
81834;SDS011;71272;52.166;4.498;2023-07-31T17:06:06;11.25;;;2.65;;
81834;SDS011;71272;52.166;4.498;2023-07-31T17:09:30;5.60;;;1.95;;
81834;SDS011;71272;52.166;4.498;2023-07-31T17:12:54;8.32;;;2.22;;
81834;SDS011;71272;52.166;4.498;2023-07-31T17:16:21;10.85;;;2.03;;
81834;SDS011;71272;52.166;4.498;2023-07-31T17:19:48;11.10;;;2.15;;
81834;SDS011;71272;52.166;4.498;2023-07-31T17:23:15;7.40;;;2.03;;
81834;SDS011;71272;52.166;4.498;2023-07-31T17:26:39;10.85;;;2.35;;
81834;SDS011;71272;52.166;4.498;2023-07-31T17:30:04;13.02;;;1.90;;
81834;SDS011;71272;52.166;4.498;2023-07-31T17:33:28;7.97;;;1.98;;
81834;SDS011;71272;52.166;4.498;2023-07-31T17:36:53;13.98;;;2.35;;
81834;SDS011;71272;52.166;4.498;2023-07-31T17:40:35;8.75;;;2.00;;
81834;SDS011;71272;52.166;4.498;2023-07-31T17:44:01;9.68;;;2.08;;
81834;SDS011;71272;52.166;4.498;2023-07-31T17:47:24;13.43;;;2.60;;
81834;SDS011;71272;52.166;4.498;2023-07-31T17:50:51;16.20;;;2.10;;
81834;SDS011;71272;52.166;4.498;2023-07-31T17:54:15;12.00;;;2.40;;
81834;SDS011;71272;52.166;4.498;2023-07-31T17:57:39;10.60;;;2.10;;
81834;SDS011;71272;52.166;4.498;2023-07-31T18:01:03;10.75;;;2.53;;
81834;SDS011;71272;52.166;4.498;2023-07-31T18:04:28;11.02;;;2.40;;
81834;SDS011;71272;52.166;4.498;2023-07-31T18:07:52;16.42;;;2.90;;
81834;SDS011;71272;52.166;4.498;2023-07-31T18:11:16;14.23;;;2.50;;
81834;SDS011;71272;52.166;4.498;2023-07-31T18:14:40;12.98;;;2.65;;
81834;SDS011;71272;52.166;4.498;2023-07-31T18:18:11;9.00;;;2.38;;
81834;SDS011;71272;52.166;4.498;2023-07-31T18:21:35;9.27;;;2.45;;
81834;SDS011;71272;52.166;4.498;2023-07-31T18:24:59;13.73;;;2.72;;
81834;SDS011;71272;52.166;4.498;2023-07-31T18:28:23;10.10;;;2.15;;
81834;SDS011;71272;52.166;4.498;2023-07-31T18:31:47;12.23;;;2.67;;
81834;SDS011;71272;52.166;4.498;2023-07-31T18:35:14;13.27;;;2.70;;
81834;SDS011;71272;52.166;4.498;2023-07-31T18:38:41;12.05;;;2.50;;
81834;SDS011;71272;52.166;4.498;2023-07-31T18:42:06;15.00;;;2.88;;
81834;SDS011;71272;52.166;4.498;2023-07-31T18:45:31;12.98;;;2.67;;
81834;SDS011;71272;52.166;4.498;2023-07-31T18:48:58;8.57;;;2.40;;
81834;SDS011;71272;52.166;4.498;2023-07-31T18:52:22;9.00;;;2.50;;
81834;SDS011;71272;52.166;4.498;2023-07-31T18:55:49;8.00;;;1.85;;
81834;SDS011;71272;52.166;4.498;2023-07-31T18:59:13;8.30;;;2.03;;
81834;SDS011;71272;52.166;4.498;2023-07-31T19:02:44;5.97;;;1.85;;
81834;SDS011;71272;52.166;4.498;2023-07-31T19:06:11;9.38;;;2.17;;
81834;SDS011;71272;52.166;4.498;2023-07-31T19:09:35;5.68;;;1.85;;
81834;SDS011;71272;52.166;4.498;2023-07-31T19:13:00;5.90;;;2.00;;
81834;SDS011;71272;52.166;4.498;2023-07-31T19:16:24;9.73;;;1.80;;
81834;SDS011;71272;52.166;4.498;2023-07-31T19:19:48;8.15;;;1.90;;
81834;SDS011;71272;52.166;4.498;2023-07-31T19:23:15;7.38;;;1.83;;
81834;SDS011;71272;52.166;4.498;2023-07-31T19:26:39;6.32;;;2.00;;
81834;SDS011;71272;52.166;4.498;2023-07-31T19:30:06;6.38;;;1.63;;
81834;SDS011;71272;52.166;4.498;2023-07-31T19:33:30;8.40;;;1.60;;
81834;SDS011;71272;52.166;4.498;2023-07-31T19:36:54;3.58;;;1.38;;
81834;SDS011;71272;52.166;4.498;2023-07-31T19:40:19;5.82;;;2.10;;
81834;SDS011;71272;52.166;4.498;2023-07-31T19:43:44;7.15;;;1.70;;
81834;SDS011;71272;52.166;4.498;2023-07-31T19:47:08;6.50;;;1.90;;
81834;SDS011;71272;52.166;4.498;2023-07-31T19:50:33;8.00;;;2.08;;
81834;SDS011;71272;52.166;4.498;2023-07-31T19:53:59;6.95;;;2.08;;
81834;SDS011;71272;52.166;4.498;2023-07-31T19:57:23;12.05;;;2.35;;
81834;SDS011;71272;52.166;4.498;2023-07-31T20:00:47;7.32;;;1.70;;
81834;SDS011;71272;52.166;4.498;2023-07-31T20:04:14;8.45;;;2.63;;
81834;SDS011;71272;52.166;4.498;2023-07-31T20:07:38;13.65;;;2.58;;
81834;SDS011;71272;52.166;4.498;2023-07-31T20:11:02;13.57;;;2.65;;
81834;SDS011;71272;52.166;4.498;2023-07-31T20:14:26;11.07;;;2.35;;
81834;SDS011;71272;52.166;4.498;2023-07-31T20:17:50;12.75;;;2.17;;
81834;SDS011;71272;52.166;4.498;2023-07-31T20:21:14;11.10;;;2.30;;
81834;SDS011;71272;52.166;4.498;2023-07-31T20:24:39;8.93;;;2.55;;
81834;SDS011;71272;52.166;4.498;2023-07-31T20:28:03;10.57;;;2.17;;
81834;SDS011;71272;52.166;4.498;2023-07-31T20:31:27;12.30;;;2.30;;
81834;SDS011;71272;52.166;4.498;2023-07-31T20:34:51;8.38;;;1.95;;
81834;SDS011;71272;52.166;4.498;2023-07-31T20:38:15;11.32;;;1.83;;
81834;SDS011;71272;52.166;4.498;2023-07-31T20:41:39;7.40;;;1.80;;
81834;SDS011;71272;52.166;4.498;2023-07-31T20:45:09;8.93;;;1.88;;
81834;SDS011;71272;52.166;4.498;2023-07-31T20:48:34;7.20;;;1.85;;
81834;SDS011;71272;52.166;4.498;2023-07-31T20:51:58;6.53;;;1.60;;
81834;SDS011;71272;52.166;4.498;2023-07-31T20:55:23;8.45;;;2.35;;
81834;SDS011;71272;52.166;4.498;2023-07-31T20:58:47;6.18;;;1.80;;
81834;SDS011;71272;52.166;4.498;2023-07-31T21:02:14;7.28;;;1.95;;
81834;SDS011;71272;52.166;4.498;2023-07-31T21:05:38;9.88;;;2.05;;
81834;SDS011;71272;52.166;4.498;2023-07-31T21:09:02;7.50;;;1.88;;
81834;SDS011;71272;52.166;4.498;2023-07-31T21:12:29;6.43;;;1.85;;
81834;SDS011;71272;52.166;4.498;2023-07-31T21:16:02;8.88;;;2.40;;
81834;SDS011;71272;52.166;4.498;2023-07-31T21:19:26;7.53;;;2.25;;
81834;SDS011;71272;52.166;4.498;2023-07-31T21:22:50;6.22;;;1.70;;
81834;SDS011;71272;52.166;4.498;2023-07-31T21:26:14;5.63;;;2.10;;
81834;SDS011;71272;52.166;4.498;2023-07-31T21:29:39;7.97;;;1.83;;
81834;SDS011;71272;52.166;4.498;2023-07-31T21:33:03;4.07;;;1.60;;
81834;SDS011;71272;52.166;4.498;2023-07-31T21:36:28;7.45;;;1.92;;
81834;SDS011;71272;52.166;4.498;2023-07-31T21:39:52;6.72;;;2.30;;
81834;SDS011;71272;52.166;4.498;2023-07-31T21:43:16;4.10;;;1.73;;
81834;SDS011;71272;52.166;4.498;2023-07-31T21:46:40;4.32;;;2.00;;
81834;SDS011;71272;52.166;4.498;2023-07-31T21:50:04;5.00;;;2.35;;
81834;SDS011;71272;52.166;4.498;2023-07-31T21:53:27;5.22;;;2.15;;
81834;SDS011;71272;52.166;4.498;2023-07-31T21:56:51;7.93;;;2.72;;
81834;SDS011;71272;52.166;4.498;2023-07-31T22:00:15;7.15;;;3.45;;
81834;SDS011;71272;52.166;4.498;2023-07-31T22:03:39;7.47;;;2.53;;
81834;SDS011;71272;52.166;4.498;2023-07-31T22:07:06;10.65;;;2.20;;
81834;SDS011;71272;52.166;4.498;2023-07-31T22:10:30;5.75;;;1.80;;
81834;SDS011;71272;52.166;4.498;2023-07-31T22:13:54;6.13;;;2.38;;
81834;SDS011;71272;52.166;4.498;2023-07-31T22:17:18;5.30;;;2.63;;
81834;SDS011;71272;52.166;4.498;2023-07-31T22:20:47;5.90;;;2.20;;
81834;SDS011;71272;52.166;4.498;2023-07-31T22:24:11;7.72;;;2.50;;
81834;SDS011;71272;52.166;4.498;2023-07-31T22:27:35;7.70;;;2.67;;
81834;SDS011;71272;52.166;4.498;2023-07-31T22:30:59;8.88;;;2.65;;
81834;SDS011;71272;52.166;4.498;2023-07-31T22:34:23;7.97;;;3.15;;
81834;SDS011;71272;52.166;4.498;2023-07-31T22:37:47;10.75;;;3.10;;
81834;SDS011;71272;52.166;4.498;2023-07-31T22:41:14;7.93;;;2.67;;
81834;SDS011;71272;52.166;4.498;2023-07-31T22:44:39;11.35;;;2.80;;
81834;SDS011;71272;52.166;4.498;2023-07-31T22:48:03;10.15;;;3.08;;
81834;SDS011;71272;52.166;4.498;2023-07-31T22:51:27;11.07;;;2.92;;
81834;SDS011;71272;52.166;4.498;2023-07-31T22:54:51;8.80;;;2.80;;
81834;SDS011;71272;52.166;4.498;2023-07-31T22:58:15;8.88;;;3.22;;
81834;SDS011;71272;52.166;4.498;2023-07-31T23:01:39;9.32;;;2.78;;
81834;SDS011;71272;52.166;4.498;2023-07-31T23:05:03;10.10;;;2.80;;
81834;SDS011;71272;52.166;4.498;2023-07-31T23:08:27;6.32;;;2.65;;
81834;SDS011;71272;52.166;4.498;2023-07-31T23:11:51;10.55;;;3.75;;
81834;SDS011;71272;52.166;4.498;2023-07-31T23:15:14;10.25;;;2.88;;
81834;SDS011;71272;52.166;4.498;2023-07-31T23:18:38;7.82;;;3.35;;
81834;SDS011;71272;52.166;4.498;2023-07-31T23:22:02;10.15;;;2.58;;
81834;SDS011;71272;52.166;4.498;2023-07-31T23:25:26;14.48;;;3.65;;
81834;SDS011;71272;52.166;4.498;2023-07-31T23:28:50;10.60;;;3.65;;
81834;SDS011;71272;52.166;4.498;2023-07-31T23:32:14;11.45;;;3.38;;
81834;SDS011;71272;52.166;4.498;2023-07-31T23:35:38;11.43;;;3.22;;
81834;SDS011;71272;52.166;4.498;2023-07-31T23:39:02;8.43;;;3.38;;
81834;SDS011;71272;52.166;4.498;2023-07-31T23:42:26;7.85;;;3.10;;
81834;SDS011;71272;52.166;4.498;2023-07-31T23:45:50;12.70;;;3.13;;
81834;SDS011;71272;52.166;4.498;2023-07-31T23:49:14;9.60;;;3.05;;
81834;SDS011;71272;52.166;4.498;2023-07-31T23:52:39;12.27;;;2.55;;
81834;SDS011;71272;52.166;4.498;2023-07-31T23:56:03;11.57;;;3.58;;
81834;SDS011;71272;52.166;4.498;2023-07-31T23:59:27;12.32;;;3.55;;
